Golden Valley, Minnesota
Current Conditions -  °F | °C
As of 6:53 AM on Monday 22 Dec 2014 (Local Time) from KMIC Reporting Station
Haze Haze  
Wind Chill: 31°   Ceiling: 800
Heat Index: 39°   Visibility: 5mi
Dew Point: 36°   Wind: 13mph
Humidity: 89%   Direction: 140°SE
Pressure: 29.65"   Gusts: NA
Location:  44.99°N, 93.38°W
Report Text: KMIC 221253Z 14011KT 5SM BR OVC008 04/02 A2965 RMK AO2 SLP046 T00390022
Loading
Personal Weather Stations






























Interactive Weather Map New forecast layout! Learn more

10-Day Weather Forecast

Advertisements
Track Severe Weather on mobile